sensor_id;sensor_type;location;lat;lon;timestamp;temperature;humidity
45807;DHT22;31507;51.494;7.518;2023-08-01T00:00:25;16.10;99.90
45807;DHT22;31507;51.494;7.518;2023-08-01T00:02:51;16.00;99.90
45807;DHT22;31507;51.494;7.518;2023-08-01T00:05:17;16.10;99.90
45807;DHT22;31507;51.494;7.518;2023-08-01T00:07:42;16.10;99.90
45807;DHT22;31507;51.494;7.518;2023-08-01T00:10:08;16.10;99.90
45807;DHT22;31507;51.494;7.518;2023-08-01T00:12:34;16.10;99.90
45807;DHT22;31507;51.494;7.518;2023-08-01T00:15:00;16.00;99.90
45807;DHT22;31507;51.494;7.518;2023-08-01T00:17:25;16.10;99.90
45807;DHT22;31507;51.494;7.518;2023-08-01T00:19:51;16.00;99.90
45807;DHT22;31507;51.494;7.518;2023-08-01T00:22:17;16.00;99.90
45807;DHT22;31507;51.494;7.518;2023-08-01T00:24:42;16.10;99.90
45807;DHT22;31507;51.494;7.518;2023-08-01T00:27:08;16.10;99.90
45807;DHT22;31507;51.494;7.518;2023-08-01T00:29:36;16.10;99.90
45807;DHT22;31507;51.494;7.518;2023-08-01T00:32:01;16.10;99.90
45807;DHT22;31507;51.494;7.518;2023-08-01T00:34:27;16.00;99.90
45807;DHT22;31507;51.494;7.518;2023-08-01T00:36:53;15.90;99.90
45807;DHT22;31507;51.494;7.518;2023-08-01T00:39:18;15.80;99.90
45807;DHT22;31507;51.494;7.518;2023-08-01T00:41:44;15.70;99.90
45807;DHT22;31507;51.494;7.518;2023-08-01T00:44:09;15.60;99.90
45807;DHT22;31507;51.494;7.518;2023-08-01T00:46:35;15.70;99.90
45807;DHT22;31507;51.494;7.518;2023-08-01T00:49:02;15.60;99.90
45807;DHT22;31507;51.494;7.518;2023-08-01T00:51:29;15.60;99.90
45807;DHT22;31507;51.494;7.518;2023-08-01T00:53:55;15.60;99.90
45807;DHT22;31507;51.494;7.518;2023-08-01T00:56:21;15.50;99.90
45807;DHT22;31507;51.494;7.518;2023-08-01T00:58:47;15.50;99.90
45807;DHT22;31507;51.494;7.518;2023-08-01T01:01:12;15.50;99.90
45807;DHT22;31507;51.494;7.518;2023-08-01T01:03:38;15.40;99.90
45807;DHT22;31507;51.494;7.518;2023-08-01T01:06:14;15.40;99.90
45807;DHT22;31507;51.494;7.518;2023-08-01T01:08:43;15.40;99.90
45807;DHT22;31507;51.494;7.518;2023-08-01T01:11:08;15.30;99.90
45807;DHT22;31507;51.494;7.518;2023-08-01T01:13:34;15.30;99.90
45807;DHT22;31507;51.494;7.518;2023-08-01T01:16:00;15.20;99.90
45807;DHT22;31507;51.494;7.518;2023-08-01T01:18:25;15.20;99.90
45807;DHT22;31507;51.494;7.518;2023-08-01T01:20:51;15.20;99.90
45807;DHT22;31507;51.494;7.518;2023-08-01T01:23:17;15.20;99.90
45807;DHT22;31507;51.494;7.518;2023-08-01T01:25:45;15.20;99.90
45807;DHT22;31507;51.494;7.518;2023-08-01T01:28:12;15.20;99.90
45807;DHT22;31507;51.494;7.518;2023-08-01T01:30:39;15.20;99.90
45807;DHT22;31507;51.494;7.518;2023-08-01T01:33:06;15.20;99.90
45807;DHT22;31507;51.494;7.518;2023-08-01T01:35:35;15.20;99.90
45807;DHT22;31507;51.494;7.518;2023-08-01T01:38:02;15.20;99.90
45807;DHT22;31507;51.494;7.518;2023-08-01T01:40:31;15.10;99.90
45807;DHT22;31507;51.494;7.518;2023-08-01T01:42:57;15.10;99.90
45807;DHT22;31507;51.494;7.518;2023-08-01T01:45:22;15.10;99.90
45807;DHT22;31507;51.494;7.518;2023-08-01T01:47:48;15.10;99.90
45807;DHT22;31507;51.494;7.518;2023-08-01T01:50:14;15.00;99.90
45807;DHT22;31507;51.494;7.518;2023-08-01T01:52:39;15.10;99.90
45807;DHT22;31507;51.494;7.518;2023-08-01T01:55:05;15.00;99.90
45807;DHT22;31507;51.494;7.518;2023-08-01T01:57:31;15.00;99.90
45807;DHT22;31507;51.494;7.518;2023-08-01T01:59:56;15.00;99.90
45807;DHT22;31507;51.494;7.518;2023-08-01T02:02:22;15.10;99.90
45807;DHT22;31507;51.494;7.518;2023-08-01T02:04:49;15.00;99.90
45807;DHT22;31507;51.494;7.518;2023-08-01T02:07:15;15.10;99.90
45807;DHT22;31507;51.494;7.518;2023-08-01T02:09:41;15.00;99.90
45807;DHT22;31507;51.494;7.518;2023-08-01T02:12:07;15.10;99.90
45807;DHT22;31507;51.494;7.518;2023-08-01T02:14:35;15.10;99.90
45807;DHT22;31507;51.494;7.518;2023-08-01T02:17:01;15.10;99.90
45807;DHT22;31507;51.494;7.518;2023-08-01T02:19:27;15.10;99.90
45807;DHT22;31507;51.494;7.518;2023-08-01T02:21:53;15.10;99.90
45807;DHT22;31507;51.494;7.518;2023-08-01T02:24:19;15.10;99.90
45807;DHT22;31507;51.494;7.518;2023-08-01T02:26:44;15.10;99.90
45807;DHT22;31507;51.494;7.518;2023-08-01T02:29:10;15.00;99.90
45807;DHT22;31507;51.494;7.518;2023-08-01T02:31:35;15.00;99.90
45807;DHT22;31507;51.494;7.518;2023-08-01T02:34:01;14.90;99.90
45807;DHT22;31507;51.494;7.518;2023-08-01T02:36:27;14.90;99.90
45807;DHT22;31507;51.494;7.518;2023-08-01T02:38:52;14.80;99.90
45807;DHT22;31507;51.494;7.518;2023-08-01T02:41:18;14.80;99.90
45807;DHT22;31507;51.494;7.518;2023-08-01T02:43:44;14.80;99.90
45807;DHT22;31507;51.494;7.518;2023-08-01T02:46:09;14.80;99.90
45807;DHT22;31507;51.494;7.518;2023-08-01T02:48:35;14.80;99.90
45807;DHT22;31507;51.494;7.518;2023-08-01T02:51:01;14.70;99.90
45807;DHT22;31507;51.494;7.518;2023-08-01T02:53:27;14.60;99.90
45807;DHT22;31507;51.494;7.518;2023-08-01T02:55:54;14.60;99.90
45807;DHT22;31507;51.494;7.518;2023-08-01T02:58:19;14.50;99.90
45807;DHT22;31507;51.494;7.518;2023-08-01T03:00:45;14.50;99.90
45807;DHT22;31507;51.494;7.518;2023-08-01T03:03:12;14.50;99.90
45807;DHT22;31507;51.494;7.518;2023-08-01T03:05:38;14.40;99.90
45807;DHT22;31507;51.494;7.518;2023-08-01T03:08:05;14.40;99.90
45807;DHT22;31507;51.494;7.518;2023-08-01T03:10:31;14.50;99.90
45807;DHT22;31507;51.494;7.518;2023-08-01T03:12:57;14.50;99.90
45807;DHT22;31507;51.494;7.518;2023-08-01T03:15:22;14.50;99.90
45807;DHT22;31507;51.494;7.518;2023-08-01T03:17:48;14.50;99.90
45807;DHT22;31507;51.494;7.518;2023-08-01T03:20:16;14.50;99.90
45807;DHT22;31507;51.494;7.518;2023-08-01T03:22:41;14.50;99.90
45807;DHT22;31507;51.494;7.518;2023-08-01T03:25:08;14.50;99.90
45807;DHT22;31507;51.494;7.518;2023-08-01T03:27:35;14.50;99.90
45807;DHT22;31507;51.494;7.518;2023-08-01T03:30:02;14.60;99.90
45807;DHT22;31507;51.494;7.518;2023-08-01T03:32:29;14.60;99.90
45807;DHT22;31507;51.494;7.518;2023-08-01T03:34:55;14.60;99.90
45807;DHT22;31507;51.494;7.518;2023-08-01T03:37:21;14.60;99.90
45807;DHT22;31507;51.494;7.518;2023-08-01T03:39:47;14.60;99.90
45807;DHT22;31507;51.494;7.518;2023-08-01T03:42:12;14.60;99.90
45807;DHT22;31507;51.494;7.518;2023-08-01T03:44:38;14.60;99.90
45807;DHT22;31507;51.494;7.518;2023-08-01T03:47:04;14.60;99.90
45807;DHT22;31507;51.494;7.518;2023-08-01T03:49:30;14.70;99.90
45807;DHT22;31507;51.494;7.518;2023-08-01T03:51:55;14.70;99.90
45807;DHT22;31507;51.494;7.518;2023-08-01T03:54:21;14.70;99.90
45807;DHT22;31507;51.494;7.518;2023-08-01T03:56:46;14.70;99.90
45807;DHT22;31507;51.494;7.518;2023-08-01T03:59:13;14.70;99.90
45807;DHT22;31507;51.494;7.518;2023-08-01T04:01:39;14.70;99.90
45807;DHT22;31507;51.494;7.518;2023-08-01T04:04:05;14.70;99.90
45807;DHT22;31507;51.494;7.518;2023-08-01T04:06:30;14.70;99.90
45807;DHT22;31507;51.494;7.518;2023-08-01T04:08:57;14.80;99.90
45807;DHT22;31507;51.494;7.518;2023-08-01T04:11:23;14.80;99.90
45807;DHT22;31507;51.494;7.518;2023-08-01T04:13:48;14.80;99.90
45807;DHT22;31507;51.494;7.518;2023-08-01T04:16:14;14.80;99.90
45807;DHT22;31507;51.494;7.518;2023-08-01T04:18:39;14.80;99.90
45807;DHT22;31507;51.494;7.518;2023-08-01T04:21:07;14.80;99.90
45807;DHT22;31507;51.494;7.518;2023-08-01T04:23:33;14.80;99.90
45807;DHT22;31507;51.494;7.518;2023-08-01T04:25:59;14.80;99.90
45807;DHT22;31507;51.494;7.518;2023-08-01T04:28:25;14.80;99.90
45807;DHT22;31507;51.494;7.518;2023-08-01T04:30:51;14.80;99.90
45807;DHT22;31507;51.494;7.518;2023-08-01T04:33:17;14.80;99.90
45807;DHT22;31507;51.494;7.518;2023-08-01T04:35:43;14.70;99.90
45807;DHT22;31507;51.494;7.518;2023-08-01T04:38:08;14.70;99.90
45807;DHT22;31507;51.494;7.518;2023-08-01T04:40:36;14.70;99.90
45807;DHT22;31507;51.494;7.518;2023-08-01T04:43:02;14.70;99.90
45807;DHT22;31507;51.494;7.518;2023-08-01T04:45:27;14.70;99.90
45807;DHT22;31507;51.494;7.518;2023-08-01T04:47:53;14.80;99.90
45807;DHT22;31507;51.494;7.518;2023-08-01T04:50:20;14.80;99.90
45807;DHT22;31507;51.494;7.518;2023-08-01T04:52:46;14.70;99.90
45807;DHT22;31507;51.494;7.518;2023-08-01T04:55:11;14.70;99.90
45807;DHT22;31507;51.494;7.518;2023-08-01T04:57:37;14.70;99.90
45807;DHT22;31507;51.494;7.518;2023-08-01T05:00:04;14.70;99.90
45807;DHT22;31507;51.494;7.518;2023-08-01T05:02:29;14.70;99.90
45807;DHT22;31507;51.494;7.518;2023-08-01T05:04:55;14.70;99.90
45807;DHT22;31507;51.494;7.518;2023-08-01T05:07:21;14.70;99.90
45807;DHT22;31507;51.494;7.518;2023-08-01T05:09:46;14.60;99.90
45807;DHT22;31507;51.494;7.518;2023-08-01T05:12:12;14.60;99.90
45807;DHT22;31507;51.494;7.518;2023-08-01T05:14:38;14.60;99.90
45807;DHT22;31507;51.494;7.518;2023-08-01T05:17:03;14.60;99.90
45807;DHT22;31507;51.494;7.518;2023-08-01T05:19:29;14.60;99.90
45807;DHT22;31507;51.494;7.518;2023-08-01T05:21:55;14.60;99.90
45807;DHT22;31507;51.494;7.518;2023-08-01T05:24:20;14.60;99.90
45807;DHT22;31507;51.494;7.518;2023-08-01T05:26:47;14.50;99.90
45807;DHT22;31507;51.494;7.518;2023-08-01T05:29:12;14.50;99.90
45807;DHT22;31507;51.494;7.518;2023-08-01T05:31:38;14.50;99.90
45807;DHT22;31507;51.494;7.518;2023-08-01T05:34:04;14.50;99.90
45807;DHT22;31507;51.494;7.518;2023-08-01T05:36:29;14.50;99.90
45807;DHT22;31507;51.494;7.518;2023-08-01T05:38:56;14.50;99.90
45807;DHT22;31507;51.494;7.518;2023-08-01T05:41:22;14.50;99.90
45807;DHT22;31507;51.494;7.518;2023-08-01T05:43:49;14.50;99.90
45807;DHT22;31507;51.494;7.518;2023-08-01T05:46:15;14.50;99.90
45807;DHT22;31507;51.494;7.518;2023-08-01T05:48:41;14.60;99.90
45807;DHT22;31507;51.494;7.518;2023-08-01T05:51:07;14.60;99.90
45807;DHT22;31507;51.494;7.518;2023-08-01T05:53:33;14.80;99.90
45807;DHT22;31507;51.494;7.518;2023-08-01T05:55:58;14.90;99.90
45807;DHT22;31507;51.494;7.518;2023-08-01T05:58:24;14.90;99.90
45807;DHT22;31507;51.494;7.518;2023-08-01T06:00:50;15.00;99.90
45807;DHT22;31507;51.494;7.518;2023-08-01T06:03:15;15.00;99.90
45807;DHT22;31507;51.494;7.518;2023-08-01T06:05:41;15.00;99.90
45807;DHT22;31507;51.494;7.518;2023-08-01T06:08:07;14.90;99.90
45807;DHT22;31507;51.494;7.518;2023-08-01T06:10:36;15.00;99.90
45807;DHT22;31507;51.494;7.518;2023-08-01T06:13:02;14.90;99.90
45807;DHT22;31507;51.494;7.518;2023-08-01T06:15:28;14.90;99.90
45807;DHT22;31507;51.494;7.518;2023-08-01T06:17:53;14.90;99.90
45807;DHT22;31507;51.494;7.518;2023-08-01T06:20:19;15.00;99.90
45807;DHT22;31507;51.494;7.518;2023-08-01T06:22:45;15.00;99.90
45807;DHT22;31507;51.494;7.518;2023-08-01T06:25:10;15.00;99.90
45807;DHT22;31507;51.494;7.518;2023-08-01T06:27:37;15.00;99.90
45807;DHT22;31507;51.494;7.518;2023-08-01T06:30:03;15.10;99.90
45807;DHT22;31507;51.494;7.518;2023-08-01T06:32:28;15.10;99.90
45807;DHT22;31507;51.494;7.518;2023-08-01T06:34:54;15.10;99.90
45807;DHT22;31507;51.494;7.518;2023-08-01T06:37:20;15.10;99.90
45807;DHT22;31507;51.494;7.518;2023-08-01T06:39:45;15.00;99.90
45807;DHT22;31507;51.494;7.518;2023-08-01T06:42:11;15.00;99.90
45807;DHT22;31507;51.494;7.518;2023-08-01T06:44:37;15.00;99.90
45807;DHT22;31507;51.494;7.518;2023-08-01T06:47:02;15.10;99.90
45807;DHT22;31507;51.494;7.518;2023-08-01T06:49:28;15.10;99.90
45807;DHT22;31507;51.494;7.518;2023-08-01T06:51:53;15.10;99.90
45807;DHT22;31507;51.494;7.518;2023-08-01T06:54:19;15.10;99.90
45807;DHT22;31507;51.494;7.518;2023-08-01T06:56:45;15.20;99.90
45807;DHT22;31507;51.494;7.518;2023-08-01T06:59:16;15.40;99.90
45807;DHT22;31507;51.494;7.518;2023-08-01T07:01:43;15.80;99.90
45807;DHT22;31507;51.494;7.518;2023-08-01T07:04:12;16.20;99.90
45807;DHT22;31507;51.494;7.518;2023-08-01T07:06:38;16.30;99.90
45807;DHT22;31507;51.494;7.518;2023-08-01T07:09:04;16.30;99.90
45807;DHT22;31507;51.494;7.518;2023-08-01T07:11:30;16.30;99.90
45807;DHT22;31507;51.494;7.518;2023-08-01T07:13:55;16.20;99.90
45807;DHT22;31507;51.494;7.518;2023-08-01T07:16:21;16.20;99.90
45807;DHT22;31507;51.494;7.518;2023-08-01T07:18:46;16.20;99.90
45807;DHT22;31507;51.494;7.518;2023-08-01T07:21:14;16.00;99.90
45807;DHT22;31507;51.494;7.518;2023-08-01T07:23:40;16.00;99.90
45807;DHT22;31507;51.494;7.518;2023-08-01T07:26:05;15.90;99.90
45807;DHT22;31507;51.494;7.518;2023-08-01T07:28:31;15.90;99.90
45807;DHT22;31507;51.494;7.518;2023-08-01T07:31:05;15.90;99.90
45807;DHT22;31507;51.494;7.518;2023-08-01T07:33:31;16.20;99.90
45807;DHT22;31507;51.494;7.518;2023-08-01T07:35:57;16.40;99.90
45807;DHT22;31507;51.494;7.518;2023-08-01T07:38:23;16.40;99.90
45807;DHT22;31507;51.494;7.518;2023-08-01T07:40:49;16.40;99.90
45807;DHT22;31507;51.494;7.518;2023-08-01T07:43:15;16.50;99.90
45807;DHT22;31507;51.494;7.518;2023-08-01T07:45:40;16.40;99.90
45807;DHT22;31507;51.494;7.518;2023-08-01T07:48:06;16.40;99.90
45807;DHT22;31507;51.494;7.518;2023-08-01T07:50:32;16.40;99.90
45807;DHT22;31507;51.494;7.518;2023-08-01T07:52:57;16.30;99.90
45807;DHT22;31507;51.494;7.518;2023-08-01T07:55:23;16.30;99.90
45807;DHT22;31507;51.494;7.518;2023-08-01T07:57:49;16.30;99.90
45807;DHT22;31507;51.494;7.518;2023-08-01T08:00:15;16.40;99.90
45807;DHT22;31507;51.494;7.518;2023-08-01T08:02:42;16.60;99.90
45807;DHT22;31507;51.494;7.518;2023-08-01T08:05:09;16.60;99.90
45807;DHT22;31507;51.494;7.518;2023-08-01T08:07:36;16.70;99.90
45807;DHT22;31507;51.494;7.518;2023-08-01T08:10:01;16.90;99.90
45807;DHT22;31507;51.494;7.518;2023-08-01T08:12:27;17.30;99.90
45807;DHT22;31507;51.494;7.518;2023-08-01T08:14:52;17.80;99.90
45807;DHT22;31507;51.494;7.518;2023-08-01T08:17:18;18.20;99.90
45807;DHT22;31507;51.494;7.518;2023-08-01T08:19:44;18.70;99.90
45807;DHT22;31507;51.494;7.518;2023-08-01T08:22:09;19.10;99.90
45807;DHT22;31507;51.494;7.518;2023-08-01T08:24:35;18.80;99.90
45807;DHT22;31507;51.494;7.518;2023-08-01T08:27:01;18.40;99.90
45807;DHT22;31507;51.494;7.518;2023-08-01T08:29:26;18.40;99.90
45807;DHT22;31507;51.494;7.518;2023-08-01T08:31:52;18.40;99.90
45807;DHT22;31507;51.494;7.518;2023-08-01T08:34:18;18.30;99.90
45807;DHT22;31507;51.494;7.518;2023-08-01T08:36:43;18.30;99.90
45807;DHT22;31507;51.494;7.518;2023-08-01T08:39:09;18.30;99.90
45807;DHT22;31507;51.494;7.518;2023-08-01T08:41:47;18.60;99.90
45807;DHT22;31507;51.494;7.518;2023-08-01T08:44:17;18.80;99.90
45807;DHT22;31507;51.494;7.518;2023-08-01T08:46:44;18.60;99.90
45807;DHT22;31507;51.494;7.518;2023-08-01T08:49:11;18.70;99.90
45807;DHT22;31507;51.494;7.518;2023-08-01T08:51:38;18.80;99.90
45807;DHT22;31507;51.494;7.518;2023-08-01T08:54:05;18.60;99.90
45807;DHT22;31507;51.494;7.518;2023-08-01T08:56:31;18.40;99.90
45807;DHT22;31507;51.494;7.518;2023-08-01T08:58:57;18.50;99.90
45807;DHT22;31507;51.494;7.518;2023-08-01T09:01:24;18.90;99.90
45807;DHT22;31507;51.494;7.518;2023-08-01T09:03:50;19.40;99.90
45807;DHT22;31507;51.494;7.518;2023-08-01T09:06:17;19.40;99.90
45807;DHT22;31507;51.494;7.518;2023-08-01T09:08:55;19.00;99.90
45807;DHT22;31507;51.494;7.518;2023-08-01T09:11:21;18.70;99.90
45807;DHT22;31507;51.494;7.518;2023-08-01T09:13:47;18.60;99.90
45807;DHT22;31507;51.494;7.518;2023-08-01T09:16:14;18.80;99.90
45807;DHT22;31507;51.494;7.518;2023-08-01T09:18:50;18.90;99.90
45807;DHT22;31507;51.494;7.518;2023-08-01T09:21:20;18.70;99.90
45807;DHT22;31507;51.494;7.518;2023-08-01T09:23:47;18.50;99.90
45807;DHT22;31507;51.494;7.518;2023-08-01T09:26:19;18.10;99.90
45807;DHT22;31507;51.494;7.518;2023-08-01T09:28:55;17.70;99.90
45807;DHT22;31507;51.494;7.518;2023-08-01T09:31:33;17.40;99.90
45807;DHT22;31507;51.494;7.518;2023-08-01T09:34:02;17.10;99.90
45807;DHT22;31507;51.494;7.518;2023-08-01T09:36:32;17.00;99.90
45807;DHT22;31507;51.494;7.518;2023-08-01T09:39:02;17.00;99.90
45807;DHT22;31507;51.494;7.518;2023-08-01T09:41:32;17.30;99.90
45807;DHT22;31507;51.494;7.518;2023-08-01T09:43:58;18.20;99.90
45807;DHT22;31507;51.494;7.518;2023-08-01T09:46:24;19.20;99.90
45807;DHT22;31507;51.494;7.518;2023-08-01T09:48:50;19.40;99.90
45807;DHT22;31507;51.494;7.518;2023-08-01T09:51:17;19.50;99.90
45807;DHT22;31507;51.494;7.518;2023-08-01T09:54:01;19.60;99.90
45807;DHT22;31507;51.494;7.518;2023-08-01T09:56:27;19.70;99.90
45807;DHT22;31507;51.494;7.518;2023-08-01T09:58:55;20.00;99.90
45807;DHT22;31507;51.494;7.518;2023-08-01T10:01:24;20.70;99.90
45807;DHT22;31507;51.494;7.518;2023-08-01T10:03:51;21.40;99.90
45807;DHT22;31507;51.494;7.518;2023-08-01T10:06:22;21.40;99.90
45807;DHT22;31507;51.494;7.518;2023-08-01T10:08:50;20.80;99.90
45807;DHT22;31507;51.494;7.518;2023-08-01T10:11:18;20.30;99.90
45807;DHT22;31507;51.494;7.518;2023-08-01T10:13:45;20.10;99.90
45807;DHT22;31507;51.494;7.518;2023-08-01T10:16:12;19.90;99.90
45807;DHT22;31507;51.494;7.518;2023-08-01T10:18:40;19.90;99.90
45807;DHT22;31507;51.494;7.518;2023-08-01T10:21:07;20.50;99.90
45807;DHT22;31507;51.494;7.518;2023-08-01T10:23:34;20.90;99.90
45807;DHT22;31507;51.494;7.518;2023-08-01T10:26:01;21.50;99.90
45807;DHT22;31507;51.494;7.518;2023-08-01T10:28:36;21.80;99.90
45807;DHT22;31507;51.494;7.518;2023-08-01T10:31:12;21.60;99.90
45807;DHT22;31507;51.494;7.518;2023-08-01T10:33:40;21.00;99.90
45807;DHT22;31507;51.494;7.518;2023-08-01T10:36:16;20.60;99.90
45807;DHT22;31507;51.494;7.518;2023-08-01T10:38:53;20.40;99.90
45807;DHT22;31507;51.494;7.518;2023-08-01T10:43:51;19.70;99.90
45807;DHT22;31507;51.494;7.518;2023-08-01T10:46:17;18.40;99.90
45807;DHT22;31507;51.494;7.518;2023-08-01T10:48:50;16.80;99.90
45807;DHT22;31507;51.494;7.518;2023-08-01T10:51:16;15.80;99.90
45807;DHT22;31507;51.494;7.518;2023-08-01T10:53:42;15.30;99.90
45807;DHT22;31507;51.494;7.518;2023-08-01T10:56:08;15.10;99.90
45807;DHT22;31507;51.494;7.518;2023-08-01T10:58:40;15.10;99.90
45807;DHT22;31507;51.494;7.518;2023-08-01T11:01:06;15.30;99.90
45807;DHT22;31507;51.494;7.518;2023-08-01T11:03:39;15.60;99.90
45807;DHT22;31507;51.494;7.518;2023-08-01T11:06:05;15.80;99.90
45807;DHT22;31507;51.494;7.518;2023-08-01T11:08:37;16.00;99.90
45807;DHT22;31507;51.494;7.518;2023-08-01T11:11:05;16.20;99.90
45807;DHT22;31507;51.494;7.518;2023-08-01T11:13:31;16.40;99.90
45807;DHT22;31507;51.494;7.518;2023-08-01T11:16:03;17.10;99.90
45807;DHT22;31507;51.494;7.518;2023-08-01T11:18:29;17.40;99.90
45807;DHT22;31507;51.494;7.518;2023-08-01T11:20:56;17.30;99.90
45807;DHT22;31507;51.494;7.518;2023-08-01T11:23:28;17.40;99.90
45807;DHT22;31507;51.494;7.518;2023-08-01T11:25:54;17.50;99.90
45807;DHT22;31507;51.494;7.518;2023-08-01T11:28:20;17.70;99.90
45807;DHT22;31507;51.494;7.518;2023-08-01T11:30:47;17.50;99.90
45807;DHT22;31507;51.494;7.518;2023-08-01T11:33:23;17.20;99.90
45807;DHT22;31507;51.494;7.518;2023-08-01T11:35:53;16.50;99.90
45807;DHT22;31507;51.494;7.518;2023-08-01T11:38:22;15.90;99.90
45807;DHT22;31507;51.494;7.518;2023-08-01T11:40:50;15.50;99.90
45807;DHT22;31507;51.494;7.518;2023-08-01T11:43:16;15.20;99.90
45807;DHT22;31507;51.494;7.518;2023-08-01T11:45:56;15.00;99.90
45807;DHT22;31507;51.494;7.518;2023-08-01T11:48:23;15.00;99.90
45807;DHT22;31507;51.494;7.518;2023-08-01T11:50:49;15.10;99.90
45807;DHT22;31507;51.494;7.518;2023-08-01T11:53:20;15.20;99.90
45807;DHT22;31507;51.494;7.518;2023-08-01T11:55:47;15.40;99.90
45807;DHT22;31507;51.494;7.518;2023-08-01T11:58:12;15.50;99.90
45807;DHT22;31507;51.494;7.518;2023-08-01T12:00:39;15.60;99.90
45807;DHT22;31507;51.494;7.518;2023-08-01T12:03:09;15.60;99.90
45807;DHT22;31507;51.494;7.518;2023-08-01T12:05:39;15.60;99.90
45807;DHT22;31507;51.494;7.518;2023-08-01T12:08:14;15.70;99.90
45807;DHT22;31507;51.494;7.518;2023-08-01T12:10:42;15.90;99.90
45807;DHT22;31507;51.494;7.518;2023-08-01T12:13:19;15.90;99.90
45807;DHT22;31507;51.494;7.518;2023-08-01T12:15:47;16.00;99.90
45807;DHT22;31507;51.494;7.518;2023-08-01T12:18:28;16.20;99.90
45807;DHT22;31507;51.494;7.518;2023-08-01T12:20:55;16.40;99.90
45807;DHT22;31507;51.494;7.518;2023-08-01T12:23:21;16.50;99.90
45807;DHT22;31507;51.494;7.518;2023-08-01T12:25:47;16.60;99.90
45807;DHT22;31507;51.494;7.518;2023-08-01T12:28:13;16.80;99.90
45807;DHT22;31507;51.494;7.518;2023-08-01T12:30:40;17.00;99.90
45807;DHT22;31507;51.494;7.518;2023-08-01T12:33:07;17.50;99.90
45807;DHT22;31507;51.494;7.518;2023-08-01T12:35:33;17.80;99.90
45807;DHT22;31507;51.494;7.518;2023-08-01T12:37:59;18.10;99.90
45807;DHT22;31507;51.494;7.518;2023-08-01T12:40:25;18.50;99.90
45807;DHT22;31507;51.494;7.518;2023-08-01T12:42:50;18.40;99.90
45807;DHT22;31507;51.494;7.518;2023-08-01T12:45:16;18.10;99.90
45807;DHT22;31507;51.494;7.518;2023-08-01T12:47:41;18.00;99.90
45807;DHT22;31507;51.494;7.518;2023-08-01T12:50:07;17.80;99.90
45807;DHT22;31507;51.494;7.518;2023-08-01T12:52:33;17.70;99.90
45807;DHT22;31507;51.494;7.518;2023-08-01T12:54:59;17.80;99.90
45807;DHT22;31507;51.494;7.518;2023-08-01T12:57:25;17.90;99.90
45807;DHT22;31507;51.494;7.518;2023-08-01T12:59:53;18.10;99.90
45807;DHT22;31507;51.494;7.518;2023-08-01T13:02:19;18.10;99.90
45807;DHT22;31507;51.494;7.518;2023-08-01T13:04:45;18.30;99.90
45807;DHT22;31507;51.494;7.518;2023-08-01T13:07:10;18.40;99.90
45807;DHT22;31507;51.494;7.518;2023-08-01T13:09:36;18.60;99.90
45807;DHT22;31507;51.494;7.518;2023-08-01T13:12:02;18.60;99.90
45807;DHT22;31507;51.494;7.518;2023-08-01T13:14:28;18.60;99.90
45807;DHT22;31507;51.494;7.518;2023-08-01T13:16:54;18.50;99.90
45807;DHT22;31507;51.494;7.518;2023-08-01T13:19:19;18.40;99.90
45807;DHT22;31507;51.494;7.518;2023-08-01T13:21:45;18.30;99.90
45807;DHT22;31507;51.494;7.518;2023-08-01T13:24:10;18.10;99.90
45807;DHT22;31507;51.494;7.518;2023-08-01T13:26:36;18.10;99.90
45807;DHT22;31507;51.494;7.518;2023-08-01T13:29:02;18.10;99.90
45807;DHT22;31507;51.494;7.518;2023-08-01T13:31:28;18.20;99.90
45807;DHT22;31507;51.494;7.518;2023-08-01T13:33:57;18.50;99.90
45807;DHT22;31507;51.494;7.518;2023-08-01T13:36:23;18.70;99.90
45807;DHT22;31507;51.494;7.518;2023-08-01T13:38:55;19.60;99.90
45807;DHT22;31507;51.494;7.518;2023-08-01T13:41:20;20.50;99.90
45807;DHT22;31507;51.494;7.518;2023-08-01T13:43:46;21.10;99.90
45807;DHT22;31507;51.494;7.518;2023-08-01T13:46:14;21.40;99.90
45807;DHT22;31507;51.494;7.518;2023-08-01T13:48:42;21.50;99.90
45807;DHT22;31507;51.494;7.518;2023-08-01T13:51:07;21.50;99.90
45807;DHT22;31507;51.494;7.518;2023-08-01T13:53:33;21.40;99.90
45807;DHT22;31507;51.494;7.518;2023-08-01T13:55:59;21.40;99.90
45807;DHT22;31507;51.494;7.518;2023-08-01T13:58:25;21.30;99.90
45807;DHT22;31507;51.494;7.518;2023-08-01T14:00:50;21.50;99.90
45807;DHT22;31507;51.494;7.518;2023-08-01T14:03:16;21.40;99.90
45807;DHT22;31507;51.494;7.518;2023-08-01T14:05:41;21.10;99.90
45807;DHT22;31507;51.494;7.518;2023-08-01T14:08:07;20.80;99.90
45807;DHT22;31507;51.494;7.518;2023-08-01T14:10:33;20.30;99.90
45807;DHT22;31507;51.494;7.518;2023-08-01T14:12:59;20.00;99.90
45807;DHT22;31507;51.494;7.518;2023-08-01T14:15:24;19.90;99.90
45807;DHT22;31507;51.494;7.518;2023-08-01T14:17:53;19.60;99.90
45807;DHT22;31507;51.494;7.518;2023-08-01T14:20:18;19.40;99.90
45807;DHT22;31507;51.494;7.518;2023-08-01T14:22:44;19.50;99.90
45807;DHT22;31507;51.494;7.518;2023-08-01T14:25:10;19.70;99.90
45807;DHT22;31507;51.494;7.518;2023-08-01T14:27:36;19.70;99.90
45807;DHT22;31507;51.494;7.518;2023-08-01T14:30:02;20.10;99.90
45807;DHT22;31507;51.494;7.518;2023-08-01T14:32:28;20.10;99.90
45807;DHT22;31507;51.494;7.518;2023-08-01T14:34:59;20.00;99.90
45807;DHT22;31507;51.494;7.518;2023-08-01T14:37:25;20.10;99.90
45807;DHT22;31507;51.494;7.518;2023-08-01T14:39:51;20.90;99.90
45807;DHT22;31507;51.494;7.518;2023-08-01T14:42:17;21.50;99.90
45807;DHT22;31507;51.494;7.518;2023-08-01T14:44:42;21.90;99.90
45807;DHT22;31507;51.494;7.518;2023-08-01T14:47:08;22.20;99.90
45807;DHT22;31507;51.494;7.518;2023-08-01T14:49:34;22.30;99.90
45807;DHT22;31507;51.494;7.518;2023-08-01T14:52:00;22.20;99.90
45807;DHT22;31507;51.494;7.518;2023-08-01T14:54:26;22.40;99.90
45807;DHT22;31507;51.494;7.518;2023-08-01T14:56:51;22.40;99.90
45807;DHT22;31507;51.494;7.518;2023-08-01T14:59:17;22.60;99.90
45807;DHT22;31507;51.494;7.518;2023-08-01T15:01:43;22.60;99.90
45807;DHT22;31507;51.494;7.518;2023-08-01T15:04:09;22.00;99.90
45807;DHT22;31507;51.494;7.518;2023-08-01T15:06:34;21.40;99.90
45807;DHT22;31507;51.494;7.518;2023-08-01T15:09:00;21.00;99.90
45807;DHT22;31507;51.494;7.518;2023-08-01T15:11:25;20.50;99.90
45807;DHT22;31507;51.494;7.518;2023-08-01T15:13:54;20.30;99.90
45807;DHT22;31507;51.494;7.518;2023-08-01T15:16:19;20.10;99.90
45807;DHT22;31507;51.494;7.518;2023-08-01T15:18:45;19.90;99.90
45807;DHT22;31507;51.494;7.518;2023-08-01T15:21:11;19.80;99.90
45807;DHT22;31507;51.494;7.518;2023-08-01T15:23:36;19.80;99.90
45807;DHT22;31507;51.494;7.518;2023-08-01T15:26:02;19.90;99.90
45807;DHT22;31507;51.494;7.518;2023-08-01T15:28:28;19.70;99.90